METAR

Kategorie: Uncategorised
Veröffentlicht: Freitag, 13. Dezember 2013 15:15
Geschrieben von Super User
Zugriffe: 1102

2013/12/13 13:26 ETNL 131326Z 22005KT 1500 R28/2500D -DZ BR BKN003 03/02 Q1022 AMB